Time;durP1;ratioP1;P1;durP2;ratioP2;P2;SDS_P1;SDS_P2;PMS_P1;PMS_P2;Temp;Humidity;BMP_temperature;BMP_pressure;BME280_temperature;BME280_humidity;BME280_pressure;Samples;Min_cycle;Max_cycle;Signal;HPM_P1;HPM_P2
2022/03/06 00:01:05;;;;;;;18.83;14.98;;;10.30;65.00;;;;;;5034441;28;20026;-75
2022/03/06 00:03:30;;;;;;;20.52;16.05;;;10.30;65.10;;;;;;5033342;28;20398;-75
2022/03/06 00:05:56;;;;;;;19.02;15.40;;;10.30;65.10;;;;;;5035060;28;20021;-76
2022/03/06 00:08:21;;;;;;;21.52;16.13;;;10.30;65.10;;;;;;5033419;28;20108;-75
2022/03/06 00:10:48;;;;;;;19.30;15.15;;;10.30;65.10;;;;;;5034337;28;20028;-76
2022/03/06 00:13:14;;;;;;;19.20;16.05;;;10.30;65.10;;;;;;5033204;28;20147;-75
2022/03/06 00:15:41;;;;;;;17.55;14.48;;;10.30;65.10;;;;;;5033237;28;20018;-76
2022/03/06 00:18:07;;;;;;;19.85;15.45;;;10.30;65.00;;;;;;5034466;28;20086;-75
2022/03/06 00:20:33;;;;;;;19.13;15.05;;;10.30;65.00;;;;;;5033872;28;20018;-76
2022/03/06 00:22:59;;;;;;;18.85;14.65;;;10.30;65.10;;;;;;5033211;28;20032;-76
2022/03/06 00:25:24;;;;;;;20.58;15.98;;;10.30;65.00;;;;;;5032821;28;20018;-76
2022/03/06 00:27:50;;;;;;;20.52;15.70;;;10.30;65.00;;;;;;5034312;28;20037;-77
2022/03/06 00:30:15;;;;;;;18.77;15.05;;;10.30;65.00;;;;;;5033935;28;20092;-76
2022/03/06 00:32:41;;;;;;;18.95;15.40;;;10.30;65.00;;;;;;5034535;28;20049;-75
2022/03/06 00:35:07;;;;;;;17.95;14.80;;;10.30;65.00;;;;;;5034230;28;20491;-75
2022/03/06 00:37:33;;;;;;;19.75;14.82;;;10.30;65.10;;;;;;5033018;28;20033;-75
2022/03/06 00:39:58;;;;;;;19.85;14.75;;;10.30;65.10;;;;;;5033868;28;20029;-76
2022/03/06 00:42:24;;;;;;;20.25;15.07;;;10.30;65.00;;;;;;5032794;28;20037;-76
2022/03/06 00:44:50;;;;;;;18.73;15.25;;;10.30;65.00;;;;;;5033994;28;20017;-76
2022/03/06 00:47:16;;;;;;;19.55;14.93;;;10.30;65.00;;;;;;5032699;28;20033;-76
2022/03/06 00:49:42;;;;;;;20.90;14.65;;;10.30;65.00;;;;;;5032347;28;20391;-76
2022/03/06 00:52:07;;;;;;;18.40;14.23;;;10.30;65.10;;;;;;5033972;28;20087;-75
2022/03/06 00:54:33;;;;;;;18.80;14.95;;;10.30;65.00;;;;;;5033837;28;20092;-75
2022/03/06 00:56:58;;;;;;;18.35;14.80;;;10.30;65.00;;;;;;5033812;28;20097;-75
2022/03/06 00:59:24;;;;;;;18.40;14.38;;;10.30;65.00;;;;;;5032190;28;20029;-73
2022/03/06 01:01:50;;;;;;;17.55;14.50;;;10.30;65.00;;;;;;5032398;28;20099;-75
2022/03/06 01:04:15;;;;;;;19.60;14.38;;;10.30;65.00;;;;;;5033583;28;20018;-75
2022/03/06 01:06:41;;;;;;;20.05;14.90;;;10.30;65.00;;;;;;5032411;28;20514;-76
2022/03/06 01:09:06;;;;;;;18.98;14.15;;;10.20;64.90;;;;;;5033264;28;20070;-77
2022/03/06 01:11:34;;;;;;;17.52;14.27;;;10.30;64.90;;;;;;5033457;28;20067;-76
2022/03/06 01:14:00;;;;;;;18.15;15.02;;;10.30;64.90;;;;;;5033523;28;20028;-75
2022/03/06 01:16:25;;;;;;;18.13;14.35;;;10.30;64.90;;;;;;5032120;28;20033;-76
2022/03/06 01:18:51;;;;;;;18.60;14.45;;;10.30;64.90;;;;;;5033342;28;20402;-76
2022/03/06 01:21:16;;;;;;;18.55;14.77;;;10.30;64.90;;;;;;5033002;28;20475;-75
2022/03/06 01:23:42;;;;;;;17.95;14.52;;;10.20;64.90;;;;;;5031758;28;20018;-75
2022/03/06 01:26:07;;;;;;;17.55;14.15;;;10.30;64.90;;;;;;5033249;28;20072;-75
2022/03/06 01:28:33;;;;;;;17.02;13.75;;;10.30;64.90;;;;;;5032016;28;20457;-77
2022/03/06 01:30:59;;;;;;;17.60;14.05;;;10.30;64.90;;;;;;5031558;28;20522;-76
2022/03/06 01:33:24;;;;;;;17.30;13.68;;;10.30;65.00;;;;;;5031286;28;20026;-76
2022/03/06 01:35:50;;;;;;;17.55;14.02;;;10.20;65.00;;;;;;5031839;28;20026;-75
2022/03/06 01:38:15;;;;;;;17.42;13.98;;;10.20;65.00;;;;;;5033015;28;20079;-76
2022/03/06 01:40:41;;;;;;;16.30;13.20;;;10.20;64.90;;;;;;5031361;28;20033;-76
2022/03/06 01:43:07;;;;;;;18.77;13.23;;;10.20;64.90;;;;;;5031769;28;20025;-75
2022/03/06 01:45:32;;;;;;;18.50;13.95;;;10.20;65.00;;;;;;5031592;28;20079;-76
2022/03/06 01:47:59;;;;;;;18.38;14.23;;;10.20;65.00;;;;;;5032778;28;20177;-76
2022/03/06 01:50:27;;;;;;;17.73;13.70;;;10.20;64.90;;;;;;5032655;28;20017;-75
2022/03/06 01:52:55;;;;;;;16.55;12.90;;;10.20;64.90;;;;;;5032945;28;20458;-76
2022/03/06 01:55:24;;;;;;;22.05;14.57;;;10.20;64.90;;;;;;5031430;28;20033;-76
2022/03/06 01:57:50;;;;;;;20.13;13.75;;;10.20;65.00;;;;;;5011784;28;20025;-76
2022/03/06 02:00:18;;;;;;;16.40;13.50;;;10.20;64.90;;;;;;5012786;28;20152;-76
2022/03/06 02:02:44;;;;;;;16.95;13.30;;;10.20;65.00;;;;;;5028252;28;20021;-75
2022/03/06 02:05:10;;;;;;;18.85;13.55;;;10.20;65.00;;;;;;5012989;28;20089;-75
2022/03/06 02:07:36;;;;;;;16.20;13.52;;;10.20;65.10;;;;;;5028271;28;20045;-76
2022/03/06 02:10:03;;;;;;;16.95;13.50;;;10.20;64.90;;;;;;5031061;28;20104;-76
2022/03/06 02:12:29;;;;;;;17.85;13.73;;;10.20;64.90;;;;;;5031270;28;20033;-76
2022/03/06 02:14:58;;;;;;;18.65;13.95;;;10.20;64.90;;;;;;5032568;28;20021;-75
2022/03/06 02:17:24;;;;;;;15.95;12.98;;;10.20;64.90;;;;;;5032630;28;20024;-76
2022/03/06 02:20:00;;;;;;;17.60;13.77;;;10.20;64.90;;;;;;5032285;28;20021;-76
2022/03/06 02:22:29;;;;;;;16.77;12.73;;;10.20;64.90;;;;;;5032335;28;20018;-75
2022/03/06 02:24:55;;;;;;;18.50;14.02;;;10.20;64.90;;;;;;5032104;28;20022;-76
2022/03/06 02:27:21;;;;;;;17.20;13.48;;;10.20;64.90;;;;;;5031097;28;20017;-76
2022/03/06 02:29:47;;;;;;;17.40;13.45;;;10.20;64.90;;;;;;5032123;28;20090;-76
2022/03/06 02:32:15;;;;;;;16.42;13.40;;;10.20;64.90;;;;;;5032354;28;20083;-76
2022/03/06 02:34:43;;;;;;;16.35;13.30;;;10.20;64.90;;;;;;5032264;28;20067;-75
2022/03/06 02:37:11;;;;;;;17.50;13.75;;;10.20;64.80;;;;;;5032196;28;20029;-76
2022/03/06 02:39:37;;;;;;;16.77;13.00;;;10.20;64.90;;;;;;5030617;28;20025;-75
2022/03/06 02:42:04;;;;;;;16.48;13.35;;;10.20;64.90;;;;;;5030947;28;20021;-76
2022/03/06 02:44:29;;;;;;;16.88;13.75;;;10.20;64.90;;;;;;5032999;28;20379;-76
2022/03/06 02:46:55;;;;;;;17.25;13.60;;;10.20;64.80;;;;;;5034906;28;20163;-76
2022/03/06 02:49:22;;;;;;;16.30;12.70;;;10.20;64.90;;;;;;5035003;28;20088;-76
2022/03/06 02:51:47;;;;;;;17.55;13.25;;;10.10;64.90;;;;;;5036037;28;20470;-77
2022/03/06 02:54:17;;;;;;;18.13;12.73;;;10.10;64.90;;;;;;5036115;28;20028;-75
2022/03/06 02:56:49;;;;;;;23.20;13.10;;;10.10;65.00;;;;;;5036071;28;20041;-76
2022/03/06 02:59:15;;;;;;;20.83;13.50;;;10.20;65.10;;;;;;5034702;28;20022;-75
2022/03/06 03:01:41;;;;;;;21.55;13.48;;;10.20;65.00;;;;;;5034647;28;20021;-75
2022/03/06 03:04:11;;;;;;;17.83;13.43;;;10.10;65.00;;;;;;5035893;28;20409;-75
2022/03/06 03:06:38;;;;;;;17.83;13.98;;;10.10;65.00;;;;;;5034719;28;20083;-76
2022/03/06 03:09:08;;;;;;;18.17;13.20;;;10.10;65.00;;;;;;5034651;28;20398;-75
2022/03/06 03:11:34;;;;;;;32.75;14.50;;;10.10;64.90;;;;;;5035709;28;20022;-76
2022/03/06 03:14:00;;;;;;;29.65;14.18;;;10.10;65.10;;;;;;5035709;28;20524;-76
2022/03/06 03:16:26;;;;;;;19.92;13.85;;;10.10;65.00;;;;;;5035521;28;20040;-75
2022/03/06 03:18:51;;;;;;;20.98;13.80;;;10.10;65.00;;;;;;5035621;28;20026;-75
2022/03/06 03:21:17;;;;;;;21.15;13.52;;;10.10;65.00;;;;;;5035218;28;20111;-76
2022/03/06 03:23:42;;;;;;;19.00;13.27;;;10.10;65.00;;;;;;5033648;28;20017;-76
2022/03/06 03:26:08;;;;;;;19.25;13.38;;;10.10;65.00;;;;;;5034225;28;20549;-75
2022/03/06 03:28:34;;;;;;;20.52;13.27;;;10.10;64.90;;;;;;5035422;28;20022;-76
2022/03/06 03:30:59;;;;;;;19.13;13.38;;;10.10;65.00;;;;;;5035030;28;20032;-75
2022/03/06 03:33:25;;;;;;;20.48;13.02;;;10.10;65.00;;;;;;5029942;28;20021;-74
2022/03/06 03:35:50;;;;;;;19.88;13.00;;;10.10;65.00;;;;;;5032620;28;20029;-76
2022/03/06 03:38:16;;;;;;;19.15;13.75;;;10.10;65.00;;;;;;5033972;28;20110;-76
2022/03/06 03:40:41;;;;;;;17.00;12.53;;;10.10;65.00;;;;;;5033621;28;20180;-75
2022/03/06 03:43:07;;;;;;;19.90;13.50;;;10.10;65.00;;;;;;5035114;28;20239;-76
2022/03/06 03:45:32;;;;;;;23.25;13.32;;;10.10;65.10;;;;;;5033816;28;20053;-76
2022/03/06 03:47:58;;;;;;;33.90;13.35;;;10.10;65.10;;;;;;5033774;28;20029;-76
2022/03/06 03:50:23;;;;;;;20.95;12.90;;;10.10;65.10;;;;;;5033632;28;20030;-76
2022/03/06 03:52:49;;;;;;;49.20;14.88;;;10.10;65.10;;;;;;5034913;28;20038;-76
2022/03/06 03:55:14;;;;;;;28.98;12.88;;;10.10;65.10;;;;;;5034269;28;20454;-76
2022/03/06 03:57:40;;;;;;;22.52;13.50;;;10.10;65.10;;;;;;5033575;28;20084;-76
2022/03/06 04:00:07;;;;;;;18.50;13.25;;;10.10;65.10;;;;;;5034818;28;20018;-76
2022/03/06 04:02:32;;;;;;;18.15;12.93;;;10.10;65.10;;;;;;5033384;28;20102;-75
2022/03/06 04:04:58;;;;;;;21.30;13.63;;;10.10;65.10;;;;;;5034914;28;20478;-76
2022/03/06 04:07:24;;;;;;;19.42;13.07;;;10.10;65.10;;;;;;5034583;28;20022;-77
2022/03/06 04:09:51;;;;;;;93.68;17.17;;;10.10;65.60;;;;;;5033079;28;20112;-76
2022/03/06 04:12:16;;;;;;;23.85;13.65;;;10.10;65.10;;;;;;5033384;28;20108;-76
2022/03/06 04:14:42;;;;;;;19.10;13.60;;;10.10;65.20;;;;;;5033108;28;20552;-76
2022/03/06 04:17:10;;;;;;;20.67;13.45;;;10.10;65.20;;;;;;5034304;28;20501;-76
2022/03/06 04:19:36;;;;;;;23.92;13.07;;;10.10;65.10;;;;;;5032932;28;20025;-75
2022/03/06 04:22:01;;;;;;;16.45;12.80;;;10.10;65.10;;;;;;5034316;28;20029;-76
2022/03/06 04:24:27;;;;;;;20.13;13.23;;;10.10;65.10;;;;;;5032590;28;20116;-76
2022/03/06 04:26:53;;;;;;;21.08;13.38;;;10.00;65.60;;;;;;5033042;28;20479;-76
2022/03/06 04:29:18;;;;;;;19.13;13.50;;;10.10;65.10;;;;;;5034058;28;20021;-76
2022/03/06 04:31:44;;;;;;;18.58;13.63;;;10.10;65.10;;;;;;5032792;28;20521;-76
2022/03/06 04:34:09;;;;;;;19.92;13.55;;;10.10;65.10;;;;;;5034174;28;20099;-76
2022/03/06 04:36:35;;;;;;;16.77;12.73;;;10.10;65.10;;;;;;5017674;28;20029;-76
2022/03/06 04:39:01;;;;;;;16.65;13.48;;;10.10;65.10;;;;;;5032831;28;20037;-73
2022/03/06 04:41:26;;;;;;;19.80;13.63;;;10.10;65.20;;;;;;5032520;28;20390;-75
2022/03/06 04:43:52;;;;;;;20.40;13.50;;;10.10;65.20;;;;;;5032942;28;20033;-76
2022/03/06 04:46:18;;;;;;;18.63;12.75;;;10.00;65.10;;;;;;5033913;28;20029;-76
2022/03/06 04:48:44;;;;;;;18.27;13.60;;;10.10;65.10;;;;;;5034089;28;20367;-75
2022/03/06 04:51:10;;;;;;;19.67;13.70;;;10.10;65.10;;;;;;5032426;28;20083;-76
2022/03/06 04:53:36;;;;;;;18.38;13.73;;;10.00;65.10;;;;;;5032697;28;20429;-75
2022/03/06 04:56:03;;;;;;;19.60;13.95;;;10.10;65.10;;;;;;5033529;28;20513;-75
2022/03/06 04:58:28;;;;;;;26.13;14.32;;;10.10;65.10;;;;;;5034038;28;20033;-76
2022/03/06 05:00:54;;;;;;;21.65;13.82;;;10.00;65.10;;;;;;5032026;28;20025;-75
2022/03/06 05:03:20;;;;;;;20.17;13.07;;;10.00;65.10;;;;;;5033705;28;20108;-76
2022/03/06 05:05:45;;;;;;;20.42;13.80;;;10.00;65.00;;;;;;5032327;28;20033;-76
2022/03/06 05:08:11;;;;;;;18.20;13.30;;;10.00;65.10;;;;;;5031195;28;20029;-75
2022/03/06 05:10:37;;;;;;;17.30;13.07;;;10.10;65.10;;;;;;5032958;28;20471;-76
2022/03/06 05:13:03;;;;;;;19.30;13.55;;;10.00;65.10;;;;;;5033464;28;20029;-76
2022/03/06 05:15:28;;;;;;;17.17;13.40;;;10.00;65.10;;;;;;5032061;28;20482;-76
2022/03/06 05:17:54;;;;;;;16.38;13.13;;;10.00;65.10;;;;;;5032123;28;20029;-76
2022/03/06 05:20:20;;;;;;;19.52;13.13;;;10.00;65.10;;;;;;5031852;28;20029;-76
2022/03/06 05:22:45;;;;;;;16.83;13.07;;;10.00;65.10;;;;;;5031960;28;20037;-76
2022/03/06 05:25:11;;;;;;;16.60;13.77;;;10.00;65.10;;;;;;5032867;28;20025;-76
2022/03/06 05:27:37;;;;;;;17.38;13.20;;;10.00;65.10;;;;;;5031793;28;20022;-76
2022/03/06 05:30:05;;;;;;;17.48;13.77;;;10.00;65.10;;;;;;5031598;28;20364;-76
2022/03/06 05:32:30;;;;;;;17.85;13.35;;;10.00;65.10;;;;;;5031980;28;20022;-76
2022/03/06 05:34:56;;;;;;;18.23;13.63;;;10.00;65.10;;;;;;5031278;28;20025;-76
2022/03/06 05:37:21;;;;;;;17.70;13.57;;;10.00;65.10;;;;;;5032991;28;20549;-76
2022/03/06 05:39:47;;;;;;;20.02;13.43;;;10.00;65.10;;;;;;5031417;28;20115;-76
2022/03/06 05:42:14;;;;;;;17.65;14.05;;;10.00;65.10;;;;;;5031702;28;20061;-76
2022/03/06 05:44:40;;;;;;;18.55;13.13;;;10.00;65.10;;;;;;5031870;28;20026;-76
2022/03/06 05:47:06;;;;;;;16.90;13.63;;;10.00;65.00;;;;;;5030488;28;20021;-73
2022/03/06 05:49:32;;;;;;;17.75;13.80;;;10.00;65.00;;;;;;5030804;28;20028;-76
2022/03/06 05:51:57;;;;;;;18.10;14.50;;;10.00;65.00;;;;;;5031742;28;20390;-76
2022/03/06 05:54:23;;;;;;;18.58;13.57;;;10.00;65.00;;;;;;5031290;28;20076;-76
2022/03/06 05:56:48;;;;;;;18.08;12.80;;;10.00;65.00;;;;;;5031599;28;20037;-76
2022/03/06 05:59:14;;;;;;;16.35;13.20;;;10.00;65.00;;;;;;5032330;28;20108;-76
2022/03/06 06:01:40;;;;;;;19.65;14.02;;;10.00;65.10;;;;;;5032488;28;20030;-76
2022/03/06 06:04:05;;;;;;;17.58;13.38;;;10.00;65.00;;;;;;5031428;28;20479;-76
2022/03/06 06:06:31;;;;;;;17.40;13.50;;;10.00;65.00;;;;;;5032476;28;20059;-76
2022/03/06 06:08:56;;;;;;;16.23;13.02;;;10.00;65.00;;;;;;5032428;28;20022;-76
2022/03/06 06:11:22;;;;;;;18.65;13.73;;;10.00;65.00;;;;;;5030939;28;20029;-76
2022/03/06 06:13:47;;;;;;;15.00;12.85;;;10.00;65.10;;;;;;5031405;28;20547;-76
2022/03/06 06:16:14;;;;;;;15.40;12.68;;;10.00;65.00;;;;;;5031195;28;20498;-75
2022/03/06 06:18:40;;;;;;;17.73;13.40;;;10.00;65.00;;;;;;5030754;28;20108;-75
2022/03/06 06:21:06;;;;;;;17.73;13.52;;;10.00;65.00;;;;;;5030731;28;20022;-76
2022/03/06 06:23:31;;;;;;;17.30;13.60;;;10.00;65.00;;;;;;5030611;28;20017;-76
2022/03/06 06:25:57;;;;;;;19.17;13.35;;;10.00;64.90;;;;;;5031073;28;20171;-76
2022/03/06 06:28:23;;;;;;;15.70;13.23;;;10.00;64.90;;;;;;5031017;28;20026;-76
2022/03/06 06:30:48;;;;;;;16.90;13.65;;;10.00;64.90;;;;;;5031851;28;20036;-76
2022/03/06 06:33:14;;;;;;;16.88;13.45;;;10.00;65.00;;;;;;5030932;28;20368;-76
2022/03/06 06:35:39;;;;;;;17.27;13.68;;;10.00;65.00;;;;;;5031998;28;20025;-76
2022/03/06 06:38:05;;;;;;;17.00;13.50;;;10.00;65.00;;;;;;5031019;28;20033;-76
2022/03/06 06:40:31;;;;;;;15.63;13.20;;;10.00;64.90;;;;;;5031932;28;20056;-75
2022/03/06 06:42:57;;;;;;;15.43;12.98;;;10.00;64.90;;;;;;5032069;28;20104;-76
2022/03/06 06:45:22;;;;;;;14.77;12.60;;;10.00;64.90;;;;;;5031993;28;20057;-76
2022/03/06 06:47:48;;;;;;;15.80;13.55;;;10.00;64.90;;;;;;5032010;28;20080;-76
2022/03/06 06:50:14;;;;;;;15.73;13.30;;;10.00;64.90;;;;;;5031738;28;20025;-77
2022/03/06 06:52:39;;;;;;;17.20;13.10;;;10.00;64.90;;;;;;5031834;28;20067;-75
2022/03/06 06:55:06;;;;;;;15.43;12.75;;;10.00;64.90;;;;;;5030207;28;20426;-75
2022/03/06 06:57:32;;;;;;;18.40;13.80;;;9.90;64.80;;;;;;5027263;28;20048;-76
2022/03/06 06:59:59;;;;;;;15.20;12.75;;;10.00;64.90;;;;;;5027631;28;20029;-76
2022/03/06 07:02:24;;;;;;;15.02;13.13;;;10.00;64.90;;;;;;5026924;28;20036;-77
2022/03/06 07:04:50;;;;;;;15.20;12.77;;;10.00;64.90;;;;;;5028453;28;20411;-76
2022/03/06 07:07:16;;;;;;;14.30;12.77;;;10.00;64.80;;;;;;5031558;28;20016;-76
2022/03/06 07:09:41;;;;;;;15.93;13.75;;;10.00;64.80;;;;;;5047741;28;20017;-77
2022/03/06 07:12:08;;;;;;;17.58;13.10;;;9.90;64.80;;;;;;5050341;28;20067;-77
2022/03/06 07:14:34;;;;;;;16.70;12.93;;;10.00;64.80;;;;;;5033547;28;20037;-76
2022/03/06 07:16:59;;;;;;;16.08;13.35;;;10.00;64.90;;;;;;5029763;28;20084;-77
2022/03/06 07:19:25;;;;;;;15.20;12.90;;;10.00;64.80;;;;;;5029544;28;20120;-76
2022/03/06 07:21:51;;;;;;;15.02;12.63;;;9.90;64.70;;;;;;5046416;28;20505;-77
2022/03/06 07:24:16;;;;;;;15.85;13.15;;;10.00;64.70;;;;;;5045784;28;20021;-75
2022/03/06 07:26:42;;;;;;;16.95;13.13;;;10.00;64.70;;;;;;5046315;28;20087;-77
2022/03/06 07:29:08;;;;;;;15.45;12.98;;;10.00;64.60;;;;;;5045362;28;20033;-76
2022/03/06 07:31:34;;;;;;;15.55;12.77;;;10.00;64.50;;;;;;5032477;28;20029;-78
2022/03/06 07:34:00;;;;;;;14.93;12.27;;;10.10;64.50;;;;;;5049226;28;20103;-76
2022/03/06 07:36:25;;;;;;;15.50;13.15;;;10.10;64.50;;;;;;5049340;28;20033;-77
2022/03/06 07:38:51;;;;;;;15.48;13.30;;;10.10;64.40;;;;;;5049173;28;20029;-77
2022/03/06 07:41:19;;;;;;;15.80;12.75;;;10.10;64.30;;;;;;5048286;28;20033;-76
2022/03/06 07:43:45;;;;;;;16.42;13.05;;;10.10;64.30;;;;;;5048690;28;20036;-82
2022/03/06 07:46:11;;;;;;;14.20;12.23;;;10.10;64.30;;;;;;5033177;28;20378;-78
2022/03/06 07:48:36;;;;;;;15.70;12.45;;;10.20;64.30;;;;;;5033493;28;20212;-76
2022/03/06 07:51:03;;;;;;;14.45;12.68;;;10.10;64.20;;;;;;5033001;28;20036;-75
2022/03/06 07:53:28;;;;;;;14.38;12.60;;;10.10;64.30;;;;;;5045185;28;20025;-80
2022/03/06 07:55:54;;;;;;;14.65;12.75;;;10.10;64.30;;;;;;5031163;28;20025;-78
2022/03/06 07:58:20;;;;;;;16.73;12.88;;;10.10;64.30;;;;;;5029872;28;20501;-76
2022/03/06 08:00:45;;;;;;;28.00;13.77;;;10.20;64.40;;;;;;5031248;28;20103;-75
2022/03/06 08:03:11;;;;;;;29.60;13.75;;;10.20;63.90;;;;;;5029740;28;20029;-76
2022/03/06 08:05:36;;;;;;;24.50;13.27;;;10.20;62.60;;;;;;5030041;28;20053;-75
2022/03/06 08:08:02;;;;;;;22.70;13.30;;;10.30;62.60;;;;;;5029898;28;20509;-80
2022/03/06 08:10:28;;;;;;;17.52;13.48;;;10.30;62.70;;;;;;5029590;28;20158;-77
2022/03/06 08:12:54;;;;;;;22.38;12.63;;;10.30;63.00;;;;;;5029525;28;20028;-78
2022/03/06 08:15:19;;;;;;;17.00;12.20;;;10.20;63.30;;;;;;5029697;28;20025;-75
2022/03/06 08:17:45;;;;;;;19.85;12.90;;;10.20;63.60;;;;;;5029553;28;20382;-77
2022/03/06 08:20:12;;;;;;;20.02;12.10;;;10.20;63.80;;;;;;5030679;28;20018;-77
2022/03/06 08:22:37;;;;;;;18.70;12.07;;;10.20;63.90;;;;;;5029602;28;20544;-76
2022/03/06 08:25:04;;;;;;;16.48;12.07;;;10.10;63.90;;;;;;5029866;28;20026;-76
2022/03/06 08:27:30;;;;;;;16.17;12.77;;;10.10;64.00;;;;;;5030848;28;20071;-76
2022/03/06 08:29:56;;;;;;;15.45;11.75;;;10.10;64.10;;;;;;5030587;28;20478;-75
2022/03/06 08:32:21;;;;;;;15.18;12.20;;;10.10;64.20;;;;;;5030412;28;20037;-75
2022/03/06 08:34:51;;;;;;;14.77;11.63;;;10.10;64.30;;;;;;5030578;28;20029;-78
2022/03/06 08:37:20;;;;;;;15.20;11.38;;;10.10;64.90;;;;;;5030694;28;20467;-76
2022/03/06 08:39:46;;;;;;;14.23;11.15;;;10.10;64.40;;;;;;5030364;28;20056;-76
2022/03/06 08:42:12;;;;;;;14.57;11.60;;;10.10;64.50;;;;;;5028758;28;20029;-76
2022/03/06 08:44:38;;;;;;;14.02;11.55;;;10.10;64.50;;;;;;5031133;28;20025;-77
2022/03/06 08:47:04;;;;;;;14.60;11.30;;;10.10;64.60;;;;;;5030082;28;20030;-76
2022/03/06 08:49:29;;;;;;;14.20;10.80;;;10.10;64.70;;;;;;5030796;28;20103;-76
2022/03/06 08:51:55;;;;;;;14.30;10.93;;;10.10;64.70;;;;;;5031152;28;20483;-77
2022/03/06 08:54:21;;;;;;;16.10;11.20;;;10.10;64.70;;;;;;5031273;28;20042;-78
2022/03/06 08:56:46;;;;;;;15.02;11.25;;;10.10;64.70;;;;;;5032127;28;20124;-77
2022/03/06 08:59:12;;;;;;;13.75;10.40;;;10.10;64.80;;;;;;5030372;28;20029;-74
2022/03/06 09:01:38;;;;;;;14.18;10.32;;;10.10;64.80;;;;;;5032072;28;20033;-74
2022/03/06 09:04:03;;;;;;;14.32;10.40;;;10.10;64.80;;;;;;5030261;28;20025;-75
2022/03/06 09:06:29;;;;;;;12.73;9.52;;;10.10;64.90;;;;;;5030508;28;20737;-76
2022/03/06 09:08:55;;;;;;;13.85;10.23;;;10.10;64.90;;;;;;5030339;28;20116;-78
2022/03/06 09:11:20;;;;;;;14.50;10.82;;;10.10;65.00;;;;;;5029388;28;20021;-76
2022/03/06 09:13:46;;;;;;;13.00;10.25;;;10.10;65.00;;;;;;5030016;28;20401;-77
2022/03/06 09:16:11;;;;;;;12.48;9.95;;;10.10;65.00;;;;;;5029764;28;20022;-78
2022/03/06 09:18:37;;;;;;;13.52;10.05;;;10.10;65.00;;;;;;5029885;28;20478;-77
2022/03/06 09:21:02;;;;;;;12.55;9.90;;;10.10;65.10;;;;;;5046058;28;20035;-76
2022/03/06 09:23:28;;;;;;;12.20;9.25;;;10.10;65.20;;;;;;5030119;28;20124;-76
2022/03/06 09:25:53;;;;;;;11.88;9.18;;;10.10;65.20;;;;;;5029704;28;20033;-77
2022/03/06 09:28:19;;;;;;;12.57;9.45;;;10.10;65.10;;;;;;5030452;28;20163;-76
2022/03/06 09:30:44;;;;;;;11.93;9.23;;;10.10;65.10;;;;;;5027365;28;20071;-75
2022/03/06 09:33:10;;;;;;;11.48;8.90;;;10.10;65.10;;;;;;5029245;28;20076;-76
2022/03/06 09:35:36;;;;;;;11.75;8.50;;;10.10;65.10;;;;;;5028882;28;20113;-75
2022/03/06 09:38:02;;;;;;;12.48;8.20;;;10.10;65.10;;;;;;5028266;28;20116;-75
2022/03/06 09:40:28;;;;;;;12.65;8.60;;;10.10;65.00;;;;;;5028971;28;20494;-77
2022/03/06 09:42:54;;;;;;;10.82;7.95;;;10.10;64.90;;;;;;5029381;28;20029;-76
2022/03/06 09:45:25;;;;;;;11.85;8.32;;;10.10;64.90;;;;;;5029186;28;20044;-76
2022/03/06 09:47:52;;;;;;;12.45;8.32;;;10.10;64.90;;;;;;5029130;28;20029;-77
2022/03/06 09:50:18;;;;;;;11.73;7.70;;;10.10;64.90;;;;;;5028624;28;20079;-78
2022/03/06 09:52:44;;;;;;;9.70;7.28;;;10.10;64.80;;;;;;5027745;28;20025;-75
2022/03/06 09:55:10;;;;;;;10.82;7.95;;;10.10;64.90;;;;;;5026992;28;20048;-76
2022/03/06 09:57:36;;;;;;;10.98;7.80;;;10.10;64.80;;;;;;5028612;28;20395;-76
2022/03/06 10:00:05;;;;;;;10.75;7.47;;;10.10;64.80;;;;;;5028162;28;20083;-75
2022/03/06 10:02:31;;;;;;;11.05;7.43;;;10.10;64.90;;;;;;5027246;28;20083;-74
2022/03/06 10:04:56;;;;;;;11.52;7.10;;;10.10;64.90;;;;;;5027325;28;20022;-76
2022/03/06 10:07:22;;;;;;;9.52;7.13;;;10.10;64.80;;;;;;5027309;28;20021;-76
2022/03/06 10:09:49;;;;;;;11.52;7.10;;;10.10;64.80;;;;;;5027321;28;20411;-76
2022/03/06 10:12:26;;;;;;;10.23;7.05;;;10.10;64.80;;;;;;5028785;28;20025;-77
2022/03/06 10:14:53;;;;;;;9.93;7.25;;;10.10;64.80;;;;;;5028826;28;20203;-77
2022/03/06 10:17:21;;;;;;;9.55;6.60;;;10.10;64.90;;;;;;5027528;28;20506;-75
2022/03/06 10:19:56;;;;;;;8.95;6.60;;;10.10;64.80;;;;;;5028090;28;20044;-75
2022/03/06 10:22:29;;;;;;;9.85;6.63;;;10.10;64.80;;;;;;5028305;28;20386;-75
2022/03/06 10:25:04;;;;;;;9.68;6.95;;;10.10;64.90;;;;;;5043321;28;20086;-75
2022/03/06 10:27:54;;;;;;;11.73;6.93;;;10.10;64.80;;;;;;5027415;28;20029;-75
2022/03/06 10:30:37;;;;;;;10.95;6.60;;;10.10;64.70;;;;;;5028102;28;20044;-75
2022/03/06 10:33:07;;;;;;;9.40;6.60;;;10.10;64.70;;;;;;5028140;28;20461;-78
2022/03/06 10:35:41;;;;;;;11.63;6.88;;;10.10;64.80;;;;;;5013048;28;20028;-73
2022/03/06 10:38:27;;;;;;;12.68;7.40;;;10.10;64.60;;;;;;5027881;28;20103;-76
2022/03/06 10:40:54;;;;;;;21.55;8.13;;;10.20;64.70;;;;;;5026867;28;20128;-75
2022/03/06 10:43:29;;;;;;;13.25;6.63;;;10.20;64.70;;;;;;5027036;28;20474;-76
2022/03/06 10:46:18;;;;;;;11.30;6.47;;;10.20;64.70;;;;;;5027254;28;20018;-75
2022/03/06 10:48:57;;;;;;;15.27;7.30;;;10.20;64.70;;;;;;5025908;28;20034;-76
2022/03/06 10:51:23;;;;;;;9.57;6.60;;;10.20;64.70;;;;;;5026796;28;20505;-76
2022/03/06 10:53:53;;;;;;;11.57;6.55;;;10.20;64.70;;;;;;5028732;28;20025;-76
2022/03/06 10:56:20;;;;;;;11.85;6.88;;;10.20;64.70;;;;;;5027222;28;20088;-76
2022/03/06 10:58:47;;;;;;;10.55;6.20;;;10.20;64.70;;;;;;5028141;28;20147;-75
2022/03/06 11:01:13;;;;;;;9.35;6.10;;;10.20;64.70;;;;;;5018175;28;20826;-81
2022/03/06 11:03:40;;;;;;;10.50;6.60;;;10.20;64.70;;;;;;5042413;28;20025;-76
2022/03/06 11:06:07;;;;;;;9.50;6.03;;;10.20;64.70;;;;;;5029545;28;20036;-80
2022/03/06 11:08:34;;;;;;;9.43;5.85;;;10.20;64.60;;;;;;5032255;28;20751;-76
2022/03/06 11:11:01;;;;;;;8.52;5.93;;;10.20;64.50;;;;;;5028275;28;20040;-76
2022/03/06 11:13:29;;;;;;;10.20;6.35;;;10.30;64.60;;;;;;5025456;28;20025;-76
2022/03/06 11:15:56;;;;;;;9.02;5.95;;;10.30;64.60;;;;;;5059070;28;20076;-78
2022/03/06 11:18:24;;;;;;;7.95;5.80;;;10.30;64.50;;;;;;5031276;28;20025;-76
2022/03/06 11:20:50;;;;;;;10.13;6.20;;;10.30;64.50;;;;;;5029184;28;20766;-77
2022/03/06 11:23:22;;;;;;;9.07;6.05;;;10.30;64.40;;;;;;5038224;28;20025;-76
2022/03/06 11:26:19;;;;;;;9.20;6.18;;;10.30;64.40;;;;;;5031804;28;20036;-77
2022/03/06 11:28:59;;;;;;;8.10;5.65;;;10.40;64.50;;;;;;5031471;28;20017;-76
2022/03/06 11:31:28;;;;;;;9.57;5.93;;;10.40;64.30;;;;;;5030543;28;20108;-75
2022/03/06 11:33:57;;;;;;;9.88;5.95;;;10.40;64.00;;;;;;5032322;28;20038;-76
2022/03/06 11:36:26;;;;;;;10.60;6.00;;;10.40;64.00;;;;;;5029945;28;20448;-76
2022/03/06 11:38:53;;;;;;;9.35;5.72;;;10.40;64.10;;;;;;5034015;28;20033;-77
2022/03/06 11:41:20;;;;;;;8.82;5.68;;;10.40;64.10;;;;;;5029380;28;20057;-77
2022/03/06 11:43:48;;;;;;;9.60;5.95;;;10.40;64.10;;;;;;5027723;28;20513;-75
2022/03/06 11:46:18;;;;;;;7.88;5.53;;;10.40;64.20;;;;;;5042094;28;20124;-75
2022/03/06 11:48:44;;;;;;;7.63;5.10;;;10.40;64.30;;;;;;5027953;28;20129;-75
2022/03/06 11:51:21;;;;;;;9.05;5.50;;;10.40;64.20;;;;;;5028664;28;20917;-75
2022/03/06 11:53:49;;;;;;;9.60;5.78;;;10.40;64.10;;;;;;5025162;28;20017;-75
2022/03/06 11:56:33;;;;;;;8.18;5.78;;;10.40;64.00;;;;;;5027704;28;20029;-76
2022/03/06 11:59:19;;;;;;;8.93;5.53;;;10.40;64.20;;;;;;5029944;28;20490;-74
2022/03/06 12:01:47;;;;;;;10.23;6.03;;;10.40;64.30;;;;;;5026886;28;20047;-76
2022/03/06 12:04:25;;;;;;;8.80;5.70;;;10.40;64.40;;;;;;5028877;28;20479;-75
2022/03/06 12:06:54;;;;;;;8.85;5.28;;;10.40;64.30;;;;;;5031018;28;20517;-76
2022/03/06 12:09:25;;;;;;;8.48;5.10;;;10.40;64.20;;;;;;5043979;28;20566;-78
2022/03/06 12:11:54;;;;;;;10.97;5.70;;;10.40;64.30;;;;;;5025054;28;20066;-78
2022/03/06 12:14:43;;;;;;;15.77;5.97;;;10.40;64.30;;;;;;5022566;28;20354;-79
2022/03/06 12:17:12;;;;;;;12.45;6.18;;;10.40;64.20;;;;;;5022637;28;20045;-77
2022/03/06 12:19:43;;;;;;;17.38;5.72;;;10.50;64.10;;;;;;5037740;28;20078;-76
2022/03/06 12:22:19;;;;;;;17.17;5.70;;;10.60;64.00;;;;;;5049757;28;20025;-77
2022/03/06 12:24:50;;;;;;;10.45;5.57;;;10.60;64.10;;;;;;5049739;28;20037;-79
2022/03/06 12:27:23;;;;;;;11.88;5.72;;;10.60;64.00;;;;;;5048566;28;20049;-77
2022/03/06 12:29:48;;;;;;;13.88;5.53;;;10.70;63.90;;;;;;5048346;28;20029;-76